sensor_id;sensor_type;location;lat;lon;timestamp;P1;durP1;ratioP1;P2;durP2;ratioP2
68947;SDS011;55996;49.546;7.400;2024-01-16T00:00:30;17.23;;;7.77;;
68947;SDS011;55996;49.546;7.400;2024-01-16T00:02:56;11.63;;;7.27;;
68947;SDS011;55996;49.546;7.400;2024-01-16T00:05:21;13.73;;;7.43;;
68947;SDS011;55996;49.546;7.400;2024-01-16T00:07:46;11.37;;;7.00;;
68947;SDS011;55996;49.546;7.400;2024-01-16T00:10:12;10.43;;;7.47;;
68947;SDS011;55996;49.546;7.400;2024-01-16T00:12:37;10.50;;;6.80;;
68947;SDS011;55996;49.546;7.400;2024-01-16T00:15:05;9.90;;;6.50;;
68947;SDS011;55996;49.546;7.400;2024-01-16T00:17:31;11.03;;;6.90;;
68947;SDS011;55996;49.546;7.400;2024-01-16T00:19:56;10.10;;;6.90;;
68947;SDS011;55996;49.546;7.400;2024-01-16T00:22:25;12.23;;;6.47;;
68947;SDS011;55996;49.546;7.400;2024-01-16T00:24:51;10.37;;;6.90;;
68947;SDS011;55996;49.546;7.400;2024-01-16T00:27:16;10.90;;;6.23;;
68947;SDS011;55996;49.546;7.400;2024-01-16T00:29:42;10.10;;;7.33;;
68947;SDS011;55996;49.546;7.400;2024-01-16T00:32:07;11.47;;;6.73;;
68947;SDS011;55996;49.546;7.400;2024-01-16T00:34:33;11.07;;;7.23;;
68947;SDS011;55996;49.546;7.400;2024-01-16T00:36:59;12.83;;;6.80;;
68947;SDS011;55996;49.546;7.400;2024-01-16T00:39:24;9.00;;;6.80;;
68947;SDS011;55996;49.546;7.400;2024-01-16T00:41:49;10.53;;;6.83;;
68947;SDS011;55996;49.546;7.400;2024-01-16T00:44:15;12.33;;;6.67;;
68947;SDS011;55996;49.546;7.400;2024-01-16T00:46:40;13.50;;;6.93;;
68947;SDS011;55996;49.546;7.400;2024-01-16T00:49:05;10.27;;;7.50;;
68947;SDS011;55996;49.546;7.400;2024-01-16T00:51:32;10.10;;;6.80;;
68947;SDS011;55996;49.546;7.400;2024-01-16T00:53:58;11.30;;;7.20;;
68947;SDS011;55996;49.546;7.400;2024-01-16T00:56:23;9.70;;;7.03;;
68947;SDS011;55996;49.546;7.400;2024-01-16T00:58:48;11.13;;;7.47;;
68947;SDS011;55996;49.546;7.400;2024-01-16T01:01:14;12.40;;;7.53;;
68947;SDS011;55996;49.546;7.400;2024-01-16T01:03:39;10.97;;;6.53;;
68947;SDS011;55996;49.546;7.400;2024-01-16T01:06:04;11.23;;;7.60;;
68947;SDS011;55996;49.546;7.400;2024-01-16T01:08:31;12.40;;;7.47;;
68947;SDS011;55996;49.546;7.400;2024-01-16T01:10:57;12.20;;;7.30;;
68947;SDS011;55996;49.546;7.400;2024-01-16T01:13:22;14.87;;;7.97;;
68947;SDS011;55996;49.546;7.400;2024-01-16T01:15:48;12.07;;;7.20;;
68947;SDS011;55996;49.546;7.400;2024-01-16T01:18:13;11.43;;;7.27;;
68947;SDS011;55996;49.546;7.400;2024-01-16T01:20:38;13.53;;;9.00;;
68947;SDS011;55996;49.546;7.400;2024-01-16T01:23:04;15.70;;;8.10;;
68947;SDS011;55996;49.546;7.400;2024-01-16T01:25:29;11.93;;;7.10;;
68947;SDS011;55996;49.546;7.400;2024-01-16T01:27:54;14.47;;;7.93;;
68947;SDS011;55996;49.546;7.400;2024-01-16T01:30:20;13.17;;;7.80;;
68947;SDS011;55996;49.546;7.400;2024-01-16T01:32:45;11.77;;;7.77;;
68947;SDS011;55996;49.546;7.400;2024-01-16T01:35:10;12.67;;;7.40;;
68947;SDS011;55996;49.546;7.400;2024-01-16T01:37:36;12.00;;;7.40;;
68947;SDS011;55996;49.546;7.400;2024-01-16T01:40:02;10.63;;;8.00;;
68947;SDS011;55996;49.546;7.400;2024-01-16T01:42:27;12.50;;;7.80;;
68947;SDS011;55996;49.546;7.400;2024-01-16T01:44:53;9.13;;;7.10;;
68947;SDS011;55996;49.546;7.400;2024-01-16T01:47:18;11.87;;;7.90;;
68947;SDS011;55996;49.546;7.400;2024-01-16T01:49:44;13.60;;;7.47;;
68947;SDS011;55996;49.546;7.400;2024-01-16T01:52:10;12.53;;;7.60;;
68947;SDS011;55996;49.546;7.400;2024-01-16T01:54:36;12.67;;;7.47;;
68947;SDS011;55996;49.546;7.400;2024-01-16T01:57:03;12.27;;;7.57;;
68947;SDS011;55996;49.546;7.400;2024-01-16T01:59:29;11.90;;;7.33;;
68947;SDS011;55996;49.546;7.400;2024-01-16T02:01:56;14.00;;;7.83;;
68947;SDS011;55996;49.546;7.400;2024-01-16T02:04:22;11.93;;;7.10;;
68947;SDS011;55996;49.546;7.400;2024-01-16T02:06:48;13.10;;;7.80;;
68947;SDS011;55996;49.546;7.400;2024-01-16T02:09:13;13.50;;;8.27;;
68947;SDS011;55996;49.546;7.400;2024-01-16T02:11:40;11.97;;;7.80;;
68947;SDS011;55996;49.546;7.400;2024-01-16T02:14:06;13.00;;;8.33;;
68947;SDS011;55996;49.546;7.400;2024-01-16T02:16:35;10.43;;;8.03;;
68947;SDS011;55996;49.546;7.400;2024-01-16T02:19:03;14.00;;;7.87;;
68947;SDS011;55996;49.546;7.400;2024-01-16T02:21:28;10.73;;;7.70;;
68947;SDS011;55996;49.546;7.400;2024-01-16T02:24:02;18.63;;;8.73;;
68947;SDS011;55996;49.546;7.400;2024-01-16T02:26:28;15.77;;;9.00;;
68947;SDS011;55996;49.546;7.400;2024-01-16T02:28:55;12.83;;;8.63;;
68947;SDS011;55996;49.546;7.400;2024-01-16T02:31:20;12.73;;;8.50;;
68947;SDS011;55996;49.546;7.400;2024-01-16T02:33:46;15.23;;;8.10;;
68947;SDS011;55996;49.546;7.400;2024-01-16T02:36:11;12.30;;;8.03;;
68947;SDS011;55996;49.546;7.400;2024-01-16T02:38:36;12.83;;;8.00;;
68947;SDS011;55996;49.546;7.400;2024-01-16T02:41:02;12.20;;;7.67;;
68947;SDS011;55996;49.546;7.400;2024-01-16T02:43:27;10.03;;;7.20;;
68947;SDS011;55996;49.546;7.400;2024-01-16T02:45:52;14.80;;;7.50;;
68947;SDS011;55996;49.546;7.400;2024-01-16T02:48:18;12.27;;;7.67;;
68947;SDS011;55996;49.546;7.400;2024-01-16T02:50:43;14.03;;;9.10;;
68947;SDS011;55996;49.546;7.400;2024-01-16T02:53:09;10.53;;;7.60;;
68947;SDS011;55996;49.546;7.400;2024-01-16T02:55:34;11.30;;;8.17;;
68947;SDS011;55996;49.546;7.400;2024-01-16T02:57:59;12.87;;;8.07;;
68947;SDS011;55996;49.546;7.400;2024-01-16T03:00:25;12.40;;;7.33;;
68947;SDS011;55996;49.546;7.400;2024-01-16T03:02:50;12.10;;;8.27;;
68947;SDS011;55996;49.546;7.400;2024-01-16T03:05:15;12.57;;;7.33;;
68947;SDS011;55996;49.546;7.400;2024-01-16T03:07:41;11.37;;;7.60;;
68947;SDS011;55996;49.546;7.400;2024-01-16T03:10:06;9.83;;;7.33;;
68947;SDS011;55996;49.546;7.400;2024-01-16T03:12:32;12.67;;;7.77;;
68947;SDS011;55996;49.546;7.400;2024-01-16T03:14:58;15.60;;;7.50;;
68947;SDS011;55996;49.546;7.400;2024-01-16T03:17:23;10.17;;;7.40;;
68947;SDS011;55996;49.546;7.400;2024-01-16T03:19:48;8.97;;;6.87;;
68947;SDS011;55996;49.546;7.400;2024-01-16T03:22:14;9.30;;;6.63;;
68947;SDS011;55996;49.546;7.400;2024-01-16T03:24:39;10.47;;;7.03;;
68947;SDS011;55996;49.546;7.400;2024-01-16T03:27:04;10.93;;;7.23;;
68947;SDS011;55996;49.546;7.400;2024-01-16T03:29:30;14.20;;;6.73;;
68947;SDS011;55996;49.546;7.400;2024-01-16T03:31:55;11.63;;;7.17;;
68947;SDS011;55996;49.546;7.400;2024-01-16T03:34:20;13.77;;;7.70;;
68947;SDS011;55996;49.546;7.400;2024-01-16T03:36:46;14.77;;;7.80;;
68947;SDS011;55996;49.546;7.400;2024-01-16T03:39:11;11.17;;;7.83;;
68947;SDS011;55996;49.546;7.400;2024-01-16T03:41:37;12.43;;;7.90;;
68947;SDS011;55996;49.546;7.400;2024-01-16T03:44:02;11.00;;;7.90;;
68947;SDS011;55996;49.546;7.400;2024-01-16T03:46:28;10.50;;;7.83;;
68947;SDS011;55996;49.546;7.400;2024-01-16T03:48:53;12.83;;;7.60;;
68947;SDS011;55996;49.546;7.400;2024-01-16T03:51:19;13.93;;;8.03;;
68947;SDS011;55996;49.546;7.400;2024-01-16T03:53:44;12.70;;;7.90;;
68947;SDS011;55996;49.546;7.400;2024-01-16T03:56:10;17.20;;;8.13;;
68947;SDS011;55996;49.546;7.400;2024-01-16T03:58:36;12.83;;;8.10;;
68947;SDS011;55996;49.546;7.400;2024-01-16T04:01:02;12.10;;;8.40;;
68947;SDS011;55996;49.546;7.400;2024-01-16T04:03:27;14.30;;;8.67;;
68947;SDS011;55996;49.546;7.400;2024-01-16T04:05:53;20.17;;;8.73;;
68947;SDS011;55996;49.546;7.400;2024-01-16T04:08:18;14.73;;;8.30;;
68947;SDS011;55996;49.546;7.400;2024-01-16T04:10:43;12.20;;;8.30;;
68947;SDS011;55996;49.546;7.400;2024-01-16T04:13:09;12.90;;;8.07;;
68947;SDS011;55996;49.546;7.400;2024-01-16T04:15:37;14.27;;;7.43;;
68947;SDS011;55996;49.546;7.400;2024-01-16T04:18:03;14.43;;;7.60;;
68947;SDS011;55996;49.546;7.400;2024-01-16T04:20:29;13.90;;;8.17;;
68947;SDS011;55996;49.546;7.400;2024-01-16T04:22:54;12.47;;;7.67;;
68947;SDS011;55996;49.546;7.400;2024-01-16T04:25:19;11.40;;;6.87;;
68947;SDS011;55996;49.546;7.400;2024-01-16T04:27:45;11.70;;;7.27;;
68947;SDS011;55996;49.546;7.400;2024-01-16T04:30:11;12.37;;;7.47;;
68947;SDS011;55996;49.546;7.400;2024-01-16T04:32:36;12.50;;;7.30;;
68947;SDS011;55996;49.546;7.400;2024-01-16T04:35:02;10.07;;;7.20;;
68947;SDS011;55996;49.546;7.400;2024-01-16T04:37:28;9.40;;;7.07;;
68947;SDS011;55996;49.546;7.400;2024-01-16T04:39:53;9.50;;;7.17;;
68947;SDS011;55996;49.546;7.400;2024-01-16T04:42:19;11.87;;;6.60;;
68947;SDS011;55996;49.546;7.400;2024-01-16T04:44:44;12.40;;;6.77;;
68947;SDS011;55996;49.546;7.400;2024-01-16T04:47:10;12.07;;;7.57;;
68947;SDS011;55996;49.546;7.400;2024-01-16T04:49:36;11.80;;;7.43;;
68947;SDS011;55996;49.546;7.400;2024-01-16T04:52:02;11.87;;;6.67;;
68947;SDS011;55996;49.546;7.400;2024-01-16T04:54:28;11.07;;;7.90;;
68947;SDS011;55996;49.546;7.400;2024-01-16T04:56:53;12.50;;;7.23;;
68947;SDS011;55996;49.546;7.400;2024-01-16T04:59:19;12.87;;;7.53;;
68947;SDS011;55996;49.546;7.400;2024-01-16T05:01:44;17.47;;;7.33;;
68947;SDS011;55996;49.546;7.400;2024-01-16T05:04:09;15.07;;;7.37;;
68947;SDS011;55996;49.546;7.400;2024-01-16T05:06:35;10.40;;;6.63;;
68947;SDS011;55996;49.546;7.400;2024-01-16T05:09:00;10.27;;;6.70;;
68947;SDS011;55996;49.546;7.400;2024-01-16T05:11:26;10.20;;;6.87;;
68947;SDS011;55996;49.546;7.400;2024-01-16T05:13:51;9.47;;;6.57;;
68947;SDS011;55996;49.546;7.400;2024-01-16T05:16:22;9.73;;;7.17;;
68947;SDS011;55996;49.546;7.400;2024-01-16T05:18:49;11.90;;;7.50;;
68947;SDS011;55996;49.546;7.400;2024-01-16T05:21:14;11.67;;;6.93;;
68947;SDS011;55996;49.546;7.400;2024-01-16T05:23:39;11.57;;;7.17;;
68947;SDS011;55996;49.546;7.400;2024-01-16T05:26:05;13.13;;;7.50;;
68947;SDS011;55996;49.546;7.400;2024-01-16T05:28:30;12.17;;;6.63;;
68947;SDS011;55996;49.546;7.400;2024-01-16T05:30:56;11.20;;;6.83;;
68947;SDS011;55996;49.546;7.400;2024-01-16T05:33:21;11.67;;;7.07;;
68947;SDS011;55996;49.546;7.400;2024-01-16T05:35:46;9.63;;;6.70;;
68947;SDS011;55996;49.546;7.400;2024-01-16T05:38:12;12.03;;;6.20;;
68947;SDS011;55996;49.546;7.400;2024-01-16T05:40:37;11.70;;;6.50;;
68947;SDS011;55996;49.546;7.400;2024-01-16T05:43:03;11.13;;;6.27;;
68947;SDS011;55996;49.546;7.400;2024-01-16T05:45:28;11.60;;;6.70;;
68947;SDS011;55996;49.546;7.400;2024-01-16T05:47:54;12.60;;;6.10;;
68947;SDS011;55996;49.546;7.400;2024-01-16T05:50:19;8.00;;;6.30;;
68947;SDS011;55996;49.546;7.400;2024-01-16T05:52:44;10.73;;;6.50;;
68947;SDS011;55996;49.546;7.400;2024-01-16T05:55:13;11.53;;;7.00;;
68947;SDS011;55996;49.546;7.400;2024-01-16T05:57:38;9.47;;;6.50;;
68947;SDS011;55996;49.546;7.400;2024-01-16T06:00:04;10.23;;;6.10;;
68947;SDS011;55996;49.546;7.400;2024-01-16T06:02:33;9.47;;;6.63;;
68947;SDS011;55996;49.546;7.400;2024-01-16T06:04:58;14.20;;;6.87;;
68947;SDS011;55996;49.546;7.400;2024-01-16T06:07:24;8.83;;;6.17;;
68947;SDS011;55996;49.546;7.400;2024-01-16T06:09:49;11.57;;;7.17;;
68947;SDS011;55996;49.546;7.400;2024-01-16T06:12:15;10.50;;;6.53;;
68947;SDS011;55996;49.546;7.400;2024-01-16T06:14:40;11.23;;;5.93;;
68947;SDS011;55996;49.546;7.400;2024-01-16T06:17:05;11.57;;;6.40;;
68947;SDS011;55996;49.546;7.400;2024-01-16T06:19:31;9.87;;;5.97;;
68947;SDS011;55996;49.546;7.400;2024-01-16T06:21:58;9.97;;;7.07;;
68947;SDS011;55996;49.546;7.400;2024-01-16T06:24:24;9.57;;;6.67;;
68947;SDS011;55996;49.546;7.400;2024-01-16T06:26:50;14.47;;;7.53;;
68947;SDS011;55996;49.546;7.400;2024-01-16T06:29:15;12.47;;;6.67;;
68947;SDS011;55996;49.546;7.400;2024-01-16T06:31:40;12.87;;;7.23;;
68947;SDS011;55996;49.546;7.400;2024-01-16T06:34:06;13.27;;;7.10;;
68947;SDS011;55996;49.546;7.400;2024-01-16T06:36:31;8.70;;;6.87;;
68947;SDS011;55996;49.546;7.400;2024-01-16T06:38:56;11.83;;;6.33;;
68947;SDS011;55996;49.546;7.400;2024-01-16T06:41:22;13.67;;;6.90;;
68947;SDS011;55996;49.546;7.400;2024-01-16T06:43:47;14.53;;;6.97;;
68947;SDS011;55996;49.546;7.400;2024-01-16T06:46:12;13.50;;;7.83;;
68947;SDS011;55996;49.546;7.400;2024-01-16T06:48:38;12.60;;;7.30;;
68947;SDS011;55996;49.546;7.400;2024-01-16T06:51:04;12.90;;;7.20;;
68947;SDS011;55996;49.546;7.400;2024-01-16T06:53:29;15.43;;;7.80;;
68947;SDS011;55996;49.546;7.400;2024-01-16T06:55:55;10.97;;;6.83;;
68947;SDS011;55996;49.546;7.400;2024-01-16T06:58:20;13.40;;;7.83;;
68947;SDS011;55996;49.546;7.400;2024-01-16T07:00:46;14.07;;;7.10;;
68947;SDS011;55996;49.546;7.400;2024-01-16T07:03:12;12.80;;;7.43;;
68947;SDS011;55996;49.546;7.400;2024-01-16T07:05:38;9.20;;;6.73;;
68947;SDS011;55996;49.546;7.400;2024-01-16T07:08:03;10.10;;;7.10;;
68947;SDS011;55996;49.546;7.400;2024-01-16T07:10:28;12.50;;;7.13;;
68947;SDS011;55996;49.546;7.400;2024-01-16T07:12:54;10.43;;;6.90;;
68947;SDS011;55996;49.546;7.400;2024-01-16T07:15:21;9.77;;;6.20;;
68947;SDS011;55996;49.546;7.400;2024-01-16T07:17:46;11.77;;;7.10;;
68947;SDS011;55996;49.546;7.400;2024-01-16T07:20:12;11.57;;;6.33;;
68947;SDS011;55996;49.546;7.400;2024-01-16T07:22:37;12.77;;;7.37;;
68947;SDS011;55996;49.546;7.400;2024-01-16T07:25:04;10.43;;;7.17;;
68947;SDS011;55996;49.546;7.400;2024-01-16T07:27:30;10.17;;;6.53;;
68947;SDS011;55996;49.546;7.400;2024-01-16T07:29:56;12.63;;;7.00;;
68947;SDS011;55996;49.546;7.400;2024-01-16T07:32:21;12.47;;;6.93;;
68947;SDS011;55996;49.546;7.400;2024-01-16T07:34:47;11.17;;;6.73;;
68947;SDS011;55996;49.546;7.400;2024-01-16T07:37:12;12.90;;;7.87;;
68947;SDS011;55996;49.546;7.400;2024-01-16T07:39:38;13.87;;;7.10;;
68947;SDS011;55996;49.546;7.400;2024-01-16T07:42:03;13.50;;;8.57;;
68947;SDS011;55996;49.546;7.400;2024-01-16T07:44:29;12.47;;;8.70;;
68947;SDS011;55996;49.546;7.400;2024-01-16T07:46:54;17.60;;;10.23;;
68947;SDS011;55996;49.546;7.400;2024-01-16T07:49:20;16.00;;;8.93;;
68947;SDS011;55996;49.546;7.400;2024-01-16T07:51:45;16.87;;;8.87;;
68947;SDS011;55996;49.546;7.400;2024-01-16T07:54:10;14.87;;;9.40;;
68947;SDS011;55996;49.546;7.400;2024-01-16T07:56:38;15.93;;;8.33;;
68947;SDS011;55996;49.546;7.400;2024-01-16T07:59:03;11.40;;;7.90;;
68947;SDS011;55996;49.546;7.400;2024-01-16T08:01:29;11.83;;;8.17;;
68947;SDS011;55996;49.546;7.400;2024-01-16T08:03:55;14.23;;;7.93;;
68947;SDS011;55996;49.546;7.400;2024-01-16T08:06:21;13.37;;;7.90;;
68947;SDS011;55996;49.546;7.400;2024-01-16T08:08:47;10.43;;;7.40;;
68947;SDS011;55996;49.546;7.400;2024-01-16T08:11:12;12.40;;;7.70;;
68947;SDS011;55996;49.546;7.400;2024-01-16T08:13:38;12.30;;;7.60;;
68947;SDS011;55996;49.546;7.400;2024-01-16T08:16:03;13.60;;;7.10;;
68947;SDS011;55996;49.546;7.400;2024-01-16T08:18:29;12.87;;;8.00;;
68947;SDS011;55996;49.546;7.400;2024-01-16T08:20:56;12.50;;;6.93;;
68947;SDS011;55996;49.546;7.400;2024-01-16T08:23:21;12.87;;;7.53;;
68947;SDS011;55996;49.546;7.400;2024-01-16T08:25:47;14.37;;;7.97;;
68947;SDS011;55996;49.546;7.400;2024-01-16T08:28:13;12.30;;;8.17;;
68947;SDS011;55996;49.546;7.400;2024-01-16T08:30:39;14.77;;;8.93;;
68947;SDS011;55996;49.546;7.400;2024-01-16T08:33:04;15.80;;;9.33;;
68947;SDS011;55996;49.546;7.400;2024-01-16T08:35:32;13.17;;;8.87;;
68947;SDS011;55996;49.546;7.400;2024-01-16T08:37:58;13.90;;;8.60;;
68947;SDS011;55996;49.546;7.400;2024-01-16T08:40:30;17.10;;;9.47;;
68947;SDS011;55996;49.546;7.400;2024-01-16T08:42:55;20.03;;;10.73;;
68947;SDS011;55996;49.546;7.400;2024-01-16T08:45:21;15.93;;;11.53;;
68947;SDS011;55996;49.546;7.400;2024-01-16T08:47:47;15.07;;;11.10;;
68947;SDS011;55996;49.546;7.400;2024-01-16T08:50:12;16.33;;;10.73;;
68947;SDS011;55996;49.546;7.400;2024-01-16T08:52:38;16.63;;;11.57;;
68947;SDS011;55996;49.546;7.400;2024-01-16T08:55:03;20.07;;;11.40;;
68947;SDS011;55996;49.546;7.400;2024-01-16T08:57:29;18.27;;;11.97;;
68947;SDS011;55996;49.546;7.400;2024-01-16T08:59:55;20.20;;;12.10;;
68947;SDS011;55996;49.546;7.400;2024-01-16T09:02:20;17.37;;;11.47;;
68947;SDS011;55996;49.546;7.400;2024-01-16T09:04:46;18.43;;;12.07;;
68947;SDS011;55996;49.546;7.400;2024-01-16T09:07:12;17.90;;;12.63;;
68947;SDS011;55996;49.546;7.400;2024-01-16T09:09:40;17.80;;;12.17;;
68947;SDS011;55996;49.546;7.400;2024-01-16T09:12:06;22.43;;;13.77;;
68947;SDS011;55996;49.546;7.400;2024-01-16T09:14:32;20.20;;;12.47;;
68947;SDS011;55996;49.546;7.400;2024-01-16T09:16:58;23.50;;;12.67;;
68947;SDS011;55996;49.546;7.400;2024-01-16T09:19:23;19.60;;;12.53;;
68947;SDS011;55996;49.546;7.400;2024-01-16T09:21:49;17.83;;;11.80;;
68947;SDS011;55996;49.546;7.400;2024-01-16T09:24:14;18.90;;;10.60;;
68947;SDS011;55996;49.546;7.400;2024-01-16T09:26:39;16.60;;;11.23;;
68947;SDS011;55996;49.546;7.400;2024-01-16T09:29:05;17.00;;;10.60;;
68947;SDS011;55996;49.546;7.400;2024-01-16T09:31:30;14.97;;;9.63;;
68947;SDS011;55996;49.546;7.400;2024-01-16T09:33:55;15.53;;;10.60;;
68947;SDS011;55996;49.546;7.400;2024-01-16T09:36:21;17.63;;;10.33;;
68947;SDS011;55996;49.546;7.400;2024-01-16T09:38:46;15.27;;;9.80;;
68947;SDS011;55996;49.546;7.400;2024-01-16T09:41:11;16.53;;;10.10;;
68947;SDS011;55996;49.546;7.400;2024-01-16T09:43:38;16.10;;;9.53;;
68947;SDS011;55996;49.546;7.400;2024-01-16T09:46:04;13.83;;;9.00;;
68947;SDS011;55996;49.546;7.400;2024-01-16T09:48:32;15.70;;;8.83;;
68947;SDS011;55996;49.546;7.400;2024-01-16T09:50:57;14.73;;;8.23;;
68947;SDS011;55996;49.546;7.400;2024-01-16T09:53:23;14.97;;;8.87;;
68947;SDS011;55996;49.546;7.400;2024-01-16T09:55:49;15.27;;;8.30;;
68947;SDS011;55996;49.546;7.400;2024-01-16T09:58:15;16.07;;;8.50;;
68947;SDS011;55996;49.546;7.400;2024-01-16T10:00:45;15.03;;;8.40;;
68947;SDS011;55996;49.546;7.400;2024-01-16T10:03:13;13.80;;;8.70;;
68947;SDS011;55996;49.546;7.400;2024-01-16T10:05:40;16.00;;;8.80;;
68947;SDS011;55996;49.546;7.400;2024-01-16T10:08:10;14.97;;;8.57;;
68947;SDS011;55996;49.546;7.400;2024-01-16T10:10:36;16.20;;;8.20;;
68947;SDS011;55996;49.546;7.400;2024-01-16T10:13:01;13.47;;;8.27;;
68947;SDS011;55996;49.546;7.400;2024-01-16T10:15:28;15.03;;;8.80;;
68947;SDS011;55996;49.546;7.400;2024-01-16T10:17:53;13.03;;;7.87;;
68947;SDS011;55996;49.546;7.400;2024-01-16T10:20:31;14.00;;;7.63;;
68947;SDS011;55996;49.546;7.400;2024-01-16T10:22:57;13.53;;;7.80;;
68947;SDS011;55996;49.546;7.400;2024-01-16T10:25:23;12.30;;;7.67;;
68947;SDS011;55996;49.546;7.400;2024-01-16T10:27:49;13.60;;;8.07;;
68947;SDS011;55996;49.546;7.400;2024-01-16T10:30:28;12.33;;;7.93;;
68947;SDS011;55996;49.546;7.400;2024-01-16T10:32:53;14.53;;;8.80;;
68947;SDS011;55996;49.546;7.400;2024-01-16T10:35:19;16.27;;;8.00;;
68947;SDS011;55996;49.546;7.400;2024-01-16T10:43:00;12.77;;;8.53;;
68947;SDS011;55996;49.546;7.400;2024-01-16T10:45:29;16.17;;;8.00;;
68947;SDS011;55996;49.546;7.400;2024-01-16T10:48:05;16.43;;;7.60;;
68947;SDS011;55996;49.546;7.400;2024-01-16T10:50:32;17.10;;;7.63;;
68947;SDS011;55996;49.546;7.400;2024-01-16T10:52:59;15.23;;;7.87;;
68947;SDS011;55996;49.546;7.400;2024-01-16T10:55:28;13.40;;;7.33;;
68947;SDS011;55996;49.546;7.400;2024-01-16T10:57:55;14.87;;;7.63;;
68947;SDS011;55996;49.546;7.400;2024-01-16T11:00:21;12.90;;;7.83;;
68947;SDS011;55996;49.546;7.400;2024-01-16T11:02:58;14.97;;;8.77;;
68947;SDS011;55996;49.546;7.400;2024-01-16T11:05:26;11.90;;;7.80;;
68947;SDS011;55996;49.546;7.400;2024-01-16T11:07:55;19.53;;;9.47;;
68947;SDS011;55996;49.546;7.400;2024-01-16T11:10:23;16.47;;;9.40;;
68947;SDS011;55996;49.546;7.400;2024-01-16T11:12:49;16.17;;;9.10;;
68947;SDS011;55996;49.546;7.400;2024-01-16T11:15:16;12.40;;;8.00;;
68947;SDS011;55996;49.546;7.400;2024-01-16T11:17:43;13.87;;;8.40;;
68947;SDS011;55996;49.546;7.400;2024-01-16T11:20:11;13.73;;;8.70;;
68947;SDS011;55996;49.546;7.400;2024-01-16T11:22:38;11.47;;;7.40;;
68947;SDS011;55996;49.546;7.400;2024-01-16T11:27:35;13.47;;;8.07;;
68947;SDS011;55996;49.546;7.400;2024-01-16T11:30:03;10.03;;;7.37;;
68947;SDS011;55996;49.546;7.400;2024-01-16T11:32:36;12.43;;;7.67;;
68947;SDS011;55996;49.546;7.400;2024-01-16T11:35:05;14.20;;;8.67;;
68947;SDS011;55996;49.546;7.400;2024-01-16T11:37:31;12.07;;;8.03;;
68947;SDS011;55996;49.546;7.400;2024-01-16T11:42:42;14.63;;;8.40;;
68947;SDS011;55996;49.546;7.400;2024-01-16T11:48:16;12.07;;;7.93;;
68947;SDS011;55996;49.546;7.400;2024-01-16T11:50:43;13.47;;;7.47;;
68947;SDS011;55996;49.546;7.400;2024-01-16T11:53:08;11.10;;;7.03;;
68947;SDS011;55996;49.546;7.400;2024-01-16T11:55:35;17.53;;;7.70;;
68947;SDS011;55996;49.546;7.400;2024-01-16T12:01:22;13.57;;;8.30;;
68947;SDS011;55996;49.546;7.400;2024-01-16T12:04:06;12.90;;;8.37;;
68947;SDS011;55996;49.546;7.400;2024-01-16T12:06:34;15.47;;;9.13;;
68947;SDS011;55996;49.546;7.400;2024-01-16T12:09:34;16.53;;;8.90;;
68947;SDS011;55996;49.546;7.400;2024-01-16T12:11:57;12.60;;;8.43;;
68947;SDS011;55996;49.546;7.400;2024-01-16T12:14:24;15.20;;;8.80;;
68947;SDS011;55996;49.546;7.400;2024-01-16T12:16:49;14.60;;;8.37;;
68947;SDS011;55996;49.546;7.400;2024-01-16T12:19:14;15.20;;;7.90;;
68947;SDS011;55996;49.546;7.400;2024-01-16T12:21:43;14.67;;;7.93;;
68947;SDS011;55996;49.546;7.400;2024-01-16T12:24:10;11.83;;;8.67;;
68947;SDS011;55996;49.546;7.400;2024-01-16T12:26:36;15.97;;;9.87;;
68947;SDS011;55996;49.546;7.400;2024-01-16T12:29:02;16.00;;;9.47;;
68947;SDS011;55996;49.546;7.400;2024-01-16T12:31:28;15.93;;;8.83;;
68947;SDS011;55996;49.546;7.400;2024-01-16T12:34:15;15.77;;;9.20;;
68947;SDS011;55996;49.546;7.400;2024-01-16T12:36:39;12.80;;;8.77;;
68947;SDS011;55996;49.546;7.400;2024-01-16T12:39:05;11.57;;;8.10;;
68947;SDS011;55996;49.546;7.400;2024-01-16T12:41:32;18.37;;;8.20;;
68947;SDS011;55996;49.546;7.400;2024-01-16T12:44:07;12.33;;;7.43;;
68947;SDS011;55996;49.546;7.400;2024-01-16T12:46:32;12.90;;;8.23;;
68947;SDS011;55996;49.546;7.400;2024-01-16T12:49:01;11.13;;;6.13;;
68947;SDS011;55996;49.546;7.400;2024-01-16T12:51:27;7.90;;;4.47;;
68947;SDS011;55996;49.546;7.400;2024-01-16T12:53:53;7.30;;;4.13;;
68947;SDS011;55996;49.546;7.400;2024-01-16T12:56:19;7.83;;;4.50;;
68947;SDS011;55996;49.546;7.400;2024-01-16T12:58:46;11.57;;;4.40;;
68947;SDS011;55996;49.546;7.400;2024-01-16T13:01:27;9.43;;;3.70;;
68947;SDS011;55996;49.546;7.400;2024-01-16T13:03:54;7.47;;;3.83;;
68947;SDS011;55996;49.546;7.400;2024-01-16T13:06:21;5.20;;;4.00;;
68947;SDS011;55996;49.546;7.400;2024-01-16T13:08:47;8.30;;;4.00;;
68947;SDS011;55996;49.546;7.400;2024-01-16T13:11:13;5.77;;;3.70;;
68947;SDS011;55996;49.546;7.400;2024-01-16T13:13:47;8.10;;;4.27;;
68947;SDS011;55996;49.546;7.400;2024-01-16T13:16:13;8.07;;;4.03;;
68947;SDS011;55996;49.546;7.400;2024-01-16T13:18:42;5.83;;;4.33;;
68947;SDS011;55996;49.546;7.400;2024-01-16T13:21:08;7.63;;;3.87;;
68947;SDS011;55996;49.546;7.400;2024-01-16T13:23:34;7.80;;;4.33;;
68947;SDS011;55996;49.546;7.400;2024-01-16T13:26:00;7.77;;;3.70;;
68947;SDS011;55996;49.546;7.400;2024-01-16T13:28:28;7.80;;;4.00;;
68947;SDS011;55996;49.546;7.400;2024-01-16T13:30:54;5.73;;;3.70;;
68947;SDS011;55996;49.546;7.400;2024-01-16T13:33:21;7.03;;;3.10;;
68947;SDS011;55996;49.546;7.400;2024-01-16T13:35:53;8.70;;;3.53;;
68947;SDS011;55996;49.546;7.400;2024-01-16T13:38:21;7.63;;;3.23;;
68947;SDS011;55996;49.546;7.400;2024-01-16T13:40:47;5.83;;;3.10;;
68947;SDS011;55996;49.546;7.400;2024-01-16T13:43:12;6.30;;;3.03;;
68947;SDS011;55996;49.546;7.400;2024-01-16T13:45:38;5.43;;;2.93;;
68947;SDS011;55996;49.546;7.400;2024-01-16T13:48:04;5.60;;;3.50;;
68947;SDS011;55996;49.546;7.400;2024-01-16T13:50:33;7.63;;;3.13;;
68947;SDS011;55996;49.546;7.400;2024-01-16T13:53:02;5.33;;;3.47;;
68947;SDS011;55996;49.546;7.400;2024-01-16T13:55:28;5.03;;;3.00;;
68947;SDS011;55996;49.546;7.400;2024-01-16T13:57:53;5.83;;;3.27;;
68947;SDS011;55996;49.546;7.400;2024-01-16T14:00:19;6.60;;;3.37;;
68947;SDS011;55996;49.546;7.400;2024-01-16T14:02:45;4.73;;;3.13;;
68947;SDS011;55996;49.546;7.400;2024-01-16T14:05:12;5.23;;;3.23;;
68947;SDS011;55996;49.546;7.400;2024-01-16T14:07:43;6.63;;;3.30;;
68947;SDS011;55996;49.546;7.400;2024-01-16T14:10:11;9.63;;;3.43;;
68947;SDS011;55996;49.546;7.400;2024-01-16T14:12:38;6.50;;;3.20;;
68947;SDS011;55996;49.546;7.400;2024-01-16T14:15:04;8.07;;;3.53;;
68947;SDS011;55996;49.546;7.400;2024-01-16T14:17:34;6.27;;;3.17;;
68947;SDS011;55996;49.546;7.400;2024-01-16T14:20:00;4.70;;;3.00;;
68947;SDS011;55996;49.546;7.400;2024-01-16T14:22:25;4.80;;;3.00;;
68947;SDS011;55996;49.546;7.400;2024-01-16T14:24:52;7.20;;;3.30;;
68947;SDS011;55996;49.546;7.400;2024-01-16T14:27:18;7.63;;;3.70;;
68947;SDS011;55996;49.546;7.400;2024-01-16T14:29:43;7.27;;;3.27;;
68947;SDS011;55996;49.546;7.400;2024-01-16T14:32:08;6.37;;;3.53;;
68947;SDS011;55996;49.546;7.400;2024-01-16T14:34:34;7.87;;;3.87;;
68947;SDS011;55996;49.546;7.400;2024-01-16T14:37:00;5.53;;;3.47;;
68947;SDS011;55996;49.546;7.400;2024-01-16T14:39:25;9.77;;;3.50;;
68947;SDS011;55996;49.546;7.400;2024-01-16T14:41:51;7.63;;;3.70;;
68947;SDS011;55996;49.546;7.400;2024-01-16T14:44:19;9.53;;;4.23;;
68947;SDS011;55996;49.546;7.400;2024-01-16T14:46:47;9.87;;;4.00;;